Casanova, Virginia
Current Conditions -  °F | °C
As of 11:35 AM on Wednesday 22 Oct 2014 (Local Time) from KHWY Reporting Station
Overcast Overcast  
Wind Chill: 57°   Ceiling: 3500
Heat Index: 57°   Visibility: 10mi
Dew Point: 53°   Wind: 10mph
Humidity: 85%   Direction: 330°NNW
Pressure: 29.95"   Gusts: 25mph
Location:  38.66°N, 77.72°W
Report Text: KHWY 221535Z AUTO 33009G22KT 10SM OVC035 14/12 A2995 RMK AO2 T01400116
Loading
Personal Weather Stations






























Interactive Weather Map
Tropical Storm Tracking
New forecast layout! Learn more

10-Day Weather Forecast

Advertisements
Track Severe Weather on mobile